AirNav   Air Wisconsin pilot careers
 
 427 users online  

Y47 Oakland Southwest Airport
New Hudson, Michigan, USA

GOING TO NEW HUDSON?


FAA INFORMATION EFFECTIVE 29 MARCH 2018

Location

FAA Identifier: Y47
Lat/Long: 42-30-11.2210N / 083-37-25.3800W
42-30.187017N / 083-37.423000W
42.5031169 / -83.6237167
(estimated)
Elevation: 926 ft. / 282 m (estimated)
Variation: 03W (1965)
From city: 1 mile SW of NEW HUDSON, MI
Time zone: UTC -4 (UTC -5 during Standard Time)
Zip code: 48165

Airport Operations

Airport use: Open to the public
Activation date: 10/1946
Control tower: no
ARTCC: CLEVELAND CENTER
FSS: LANSING FLIGHT SERVICE STATION
NOTAMs facility: LAN (NOTAM-D service available)
Attendance: 0830-DUSK
Wind indicator: lighted
Segmented circle: yes
Lights: ACTVT LIRL RY 08/26 CTAF 5 TIMES.
Beacon: white-green (lighted land airport)
Operates sunset to sunrise.

Airport Communications

CTAF/UNICOM: 122.7
DETROIT APPROACH: 127.5 [0600-2300]
DETROIT DEPARTURE: 127.5 [0600-2300]
WX ASOS at PTK (13 nm NE): 125.025 (248-886-8551)
WX ASOS at YIP (16 nm S): 132.35 (734-485-9056)
WX AWOS-3 at OZW (18 nm NW): 118.875 (517-546-4450)
WX ASOS at ARB (18 nm S): PHONE 734-668-7173
WX AWOS-3 at VLL (20 nm E): 119.475 (248-288-4649)

Nearby radio navigation aids

VOR radial/distance  VOR name  Freq  Var
SVMr350/5.8SALEM VORTAC114.3003W
PSIr202/12.5PONTIAC VORTAC111.0003W
DXOr333/20.8DETROIT VOR/DME113.4006W
CRLr348/28.3CARLETON VOR/DME115.7003W
FNTr175/28.3FLINT VORTAC116.9006W
YQGr299/38.4WINDSOR VOR/DME113.8006W
JXNr073/39.8JACKSON VOR/DME109.6005W

 
NDB name  Hdg/Dist  Freq  Var  ID
TECUMSEH028/30.523906WTCU - -.-. ..-
GROSSE ILE326/31.941907WRYS .-. -.-- ...

Airport Services

Fuel available: 100LL
Parking: hangars and tiedowns
Airframe service: MAJOR
Powerplant service: MAJOR
Bottled oxygen: NONE
Bulk oxygen: NONE

Runway Information

Runway 8/26

Dimensions: 3128 x 40 ft. / 953 x 12 m
Surface: asphalt, in fair condition
Runway edge lights: low intensity
RUNWAY 8  RUNWAY 26
Latitude: 42-30.105067N42-30.269933N
Longitude: 083-37.752067W083-37.092717W
Elevation: 921.0 ft.926.0 ft.
Traffic pattern: leftleft
Runway heading: 074 magnetic, 071 true254 magnetic, 251 true
Displaced threshold: 1266 ft.864 ft.
Markings: basic, in fair conditionbasic, in fair condition
Visual slope indicator: 2-box VASI on right (4.00 degrees glide path)
RY 08 VASI OTS INDEF.
2-box VASI on left (4.00 degrees glide path)
RY 26 VASI OTS INDEF.
Runway end identifier lights: nono
Touchdown point: yes, no lightsyes, no lights
Obstructions: 20 ft. brush, 201 ft. from runway
-4 FT DITCH 40 FT FM THR & SCTD +5-15 FT BRUSH.
30 ft. trees, 201 ft. from runway, 110 ft. right of centerline
20' BRUSH 84' FM THR 110' L.

Airport Ownership and Management from official FAA records

Ownership: Publicly-owned
Owner: OAKLAND COUNTY
BOX 329
NEW HUDSON, MI 48165
Phone 248-666-3900
Manager: CHERYL BUSH
57751 PONTIAC TRAIL
NEW HUDSON, MI 48165
Phone 248-446-9734

Airport Operational Statistics

Aircraft based on the field: 35
Single engine airplanes: 33
Multi engine airplanes: 1
Gliders airplanes: 1
    
Aircraft operations: avg 36/day *
50% transient general aviation
50% local general aviation
* for 12-month period ending 31 December 2014

Additional Remarks

TREES & BRUSH IN PRIMARY SFC 70-120 FT L & R.
FOR CD CTC DETROIT APCH AT 800-499-8181.
AIRPORT PHONE 248-446-9734.

Instrument Procedures

NOTE: All procedures below are presented as PDF files. If you need a reader for these files, you should download the free Adobe Reader.

NOT FOR NAVIGATION. Please procure official charts for flight.
FAA instrument procedures published for use from 29 March 2018 at 0901Z to 26 April 2018 at 0900Z.

 
STARs - Standard Terminal Arrivals
CRUXX SIX   download (248KB)
LLEEO TWO   download (321KB)
SPRTN THREE   download (158KB)
SWWAN TWO   download (147KB)
 
IAPs - Instrument Approach Procedures
VOR OR GPS-A **CHANGED**   download (135KB)
NOTE: Special Take-Off Minimums/Departure Procedures apply   download (122KB)

Other nearby airports with instrument procedures:

1D2 - Canton-Plymouth-Mettetal Airport (12 nm SE)
KPTK - Oakland County International Airport (13 nm NE)
KYIP - Willow Run Airport (16 nm S)
KOZW - Livingston County Spencer J Hardy Airport (18 nm NW)
KARB - Ann Arbor Municipal Airport (18 nm S)
9G2 - Price's Airport (19 nm N)
KVLL - Oakland/Troy Airport (20 nm E)
 
Loc | Ops | Rwys | IFR | FBO | Links
Com | Nav | Svcs | Stats | Notes

AirNav Hotels Sweepstakes
 
Area around Y47 (Oakland Southwest Airport)
 
Road maps at: MapQuest Bing Google
 
Aerial photo
WARNING: Photo may not be current or correct
Aerial photo of Y47 (Oakland Southwest Airport)
Photo by Jeff Franks
Photo taken 13-Jun-2013
looking south.

Do you have a better or more recent aerial photo of Oakland Southwest Airport that you would like to share? If so, please send us your photo.

 
Sectional chart

 
Airport distance calculator
Flying to Oakland Southwest Airport? Find the distance to fly.

From to Y47

Sunrise and sunset
Times for 23-Apr-2018
 Local
(UTC-4)
 Zulu
(UTC)
Morning civil twilight06:1210:12
Sunrise06:4210:42
Sunset20:2400:24
Evening civil twilight20:5400:54

Current date and time
Zulu (UTC)  23-Apr-2018 10:23:24
Local (UTC-4)  23-Apr-2018 06:23:24
 
METAR
KPTK 
13nm NE 
230953Z 08004KT 10SM FEW200 06/M06 A3025 RMK AO2 SLP248 T00611056
KOZW 
17nm NW 
230955Z AUTO 07004KT 10SM CLR 03/M04 A3025 RMK AO2 T00281039
KYIP 
17nm S 
230953Z 04006KT 10SM CLR 05/M04 A3025 RMK AO2 SLP243 T00501039
KARB 
18nm S 
734-668-7173
230953Z AUTO 04007KT 10SM CLR 06/M04 A3024 RMK AO2 SLP243 T00611039
KVLL 
20nm E 
230955Z AUTO 04006KT 10SM CLR 06/M06 A3028 RMK AO2 T00641056
KDTW 
21nm SE 
230953Z 06005KT 10SM SCT230 07/M03 A3025 RMK AO2 SLP246 T00721033
TAF
KPTK 
13nm NE 
230525Z 2306/2406 05005KT P6SM FEW250 FM231500 12009KT P6SM SCT250 FM232200 14007KT P6SM SCT150 BKN250
KYIP 
17nm S 
230525Z 2306/2406 05005KT P6SM FEW250 FM231500 11009KT P6SM SCT250 FM232200 13007KT P6SM BKN150
NOTAMs
Click for the latest NOTAMs
NOTAMs are issued by the DoD/FAA and will open in a separate window not controlled by AirNav.

 

 
 

FBO, Fuel Providers, and Aircraft Ground Support

  
 Business Name 
 
 Contact 
 
 Services / Description 
 
Fuel Prices
 
Comments
  
American Aces Aviation 248-446-9734
no information available

If you are affiliated with American Aces Aviation and would like to show here your services, contact info, web link, logo, and more, click here
100LL
SS $4.95 
 Updated 08-Apr-2018
 
   write
SS=Self service
Update Fuel Prices
 

Would you like to see your business listed on this page?

 If your business provides an interesting product or service to pilots, flight crews, aircraft, or users of the Oakland Southwest Airport, you should consider listing it here.  To start the listing process, click on the button below
 
Add a business
 

Other Pages about Oakland Southwest Airport

www.co.oakland.mi.us/...
Page from the Michigan Airport Directory (PDF)
 
Update a link
 
Copyright © AirNav, LLC. All rights reserved. Privacy Policy  Contact